Terminal Aerodrome Forecast
Issued by NWS Cleveland, OH

Home | Current Version | Previous Version | Graphics & Text | Print | Product List | Glossary Off
Versions: 1 2 3 4 5 6 7 8 9 10 11 12 13 14 15 16 17 18 19 20 21 22 23 24 25

566
FTUS41 KCLE 171138
TAFYNG
TAF
KYNG 171138Z 1712/1812 16004KT P6SM OVC030
     FM171500 18007KT P6SM BKN030 OVC200
     FM172000 20007KT P6SM SCT030 OVC080
     FM180000 22007KT P6SM VCSH OVC030
     FM180600 25007KT P6SM OVC025=

USA.gov is the U.S. government's official web portal to all federal, state and local government web resources and services.